Cordero, Nevada
Current Conditions -  °F | °C
As of 7:56 AM on Monday 26 Jan 2015 (Local Time) from KWMC Reporting Station
Clear Clear  
Wind Chill: 23°   Ceiling: Unl
Heat Index: 29°   Visibility: 10mi
Dew Point: 25°   Wind: 6mph
Humidity: 85%   Direction: 150°SSE
Pressure: 30.24"   Gusts: NA
Location:  41.9814°N, 117.672°W
Report Text: KWMC 261556Z AUTO 15005KT 10SM CLR M02/M04 A3024 RMK AO2 SLP254 T10171039 $
Loading
Personal Weather Stations






























Interactive Weather Map New forecast layout! Learn more

10-Day Weather Forecast

Advertisements
Track Severe Weather on mobile